sensor_id;sensor_type;location;lat;lon;timestamp;P1;durP1;ratioP1;P2;durP2;ratioP2
84982;SDS011;75295;45.426;9.696;2024-01-30T00:01:03;290.63;;;44.67;;
84982;SDS011;75295;45.426;9.696;2024-01-30T00:03:29;230.45;;;48.20;;
84982;SDS011;75295;45.426;9.696;2024-01-30T00:05:56;286.35;;;47.28;;
84982;SDS011;75295;45.426;9.696;2024-01-30T00:08:24;331.85;;;48.22;;
84982;SDS011;75295;45.426;9.696;2024-01-30T00:10:52;322.67;;;59.28;;
84982;SDS011;75295;45.426;9.696;2024-01-30T00:13:19;350.52;;;57.58;;
84982;SDS011;75295;45.426;9.696;2024-01-30T00:15:46;278.35;;;50.60;;
84982;SDS011;75295;45.426;9.696;2024-01-30T00:18:12;302.95;;;49.70;;
84982;SDS011;75295;45.426;9.696;2024-01-30T00:20:39;331.20;;;51.72;;
84982;SDS011;75295;45.426;9.696;2024-01-30T00:23:06;254.27;;;48.10;;
84982;SDS011;75295;45.426;9.696;2024-01-30T00:25:33;343.75;;;55.60;;
84982;SDS011;75295;45.426;9.696;2024-01-30T00:28:00;327.27;;;50.92;;
84982;SDS011;75295;45.426;9.696;2024-01-30T00:30:28;279.90;;;53.75;;
84982;SDS011;75295;45.426;9.696;2024-01-30T00:32:55;331.25;;;52.45;;
84982;SDS011;75295;45.426;9.696;2024-01-30T00:35:22;380.83;;;52.63;;
84982;SDS011;75295;45.426;9.696;2024-01-30T00:37:49;252.75;;;49.55;;
84982;SDS011;75295;45.426;9.696;2024-01-30T00:40:16;351.20;;;56.47;;
84982;SDS011;75295;45.426;9.696;2024-01-30T00:42:43;307.08;;;45.97;;
84982;SDS011;75295;45.426;9.696;2024-01-30T00:45:14;389.23;;;56.60;;
84982;SDS011;75295;45.426;9.696;2024-01-30T00:47:42;434.10;;;57.25;;
84982;SDS011;75295;45.426;9.696;2024-01-30T00:50:09;432.20;;;56.05;;
84982;SDS011;75295;45.426;9.696;2024-01-30T00:52:37;403.90;;;52.30;;
84982;SDS011;75295;45.426;9.696;2024-01-30T00:55:05;249.88;;;43.85;;
84982;SDS011;75295;45.426;9.696;2024-01-30T00:57:32;302.35;;;44.08;;
84982;SDS011;75295;45.426;9.696;2024-01-30T00:59:59;186.93;;;41.03;;
84982;SDS011;75295;45.426;9.696;2024-01-30T01:02:26;262.98;;;47.28;;
84982;SDS011;75295;45.426;9.696;2024-01-30T01:04:53;271.42;;;48.78;;
84982;SDS011;75295;45.426;9.696;2024-01-30T01:07:20;176.05;;;39.33;;
84982;SDS011;75295;45.426;9.696;2024-01-30T01:09:47;309.30;;;49.67;;
84982;SDS011;75295;45.426;9.696;2024-01-30T01:12:13;268.95;;;42.25;;
84982;SDS011;75295;45.426;9.696;2024-01-30T01:14:40;312.48;;;55.72;;
84982;SDS011;75295;45.426;9.696;2024-01-30T01:17:07;257.13;;;44.15;;
84982;SDS011;75295;45.426;9.696;2024-01-30T01:19:34;188.13;;;46.05;;
84982;SDS011;75295;45.426;9.696;2024-01-30T01:22:01;116.38;;;34.88;;
84982;SDS011;75295;45.426;9.696;2024-01-30T01:24:32;138.20;;;38.10;;
84982;SDS011;75295;45.426;9.696;2024-01-30T01:26:58;166.00;;;44.20;;
84982;SDS011;75295;45.426;9.696;2024-01-30T01:29:25;155.15;;;38.67;;
84982;SDS011;75295;45.426;9.696;2024-01-30T01:31:55;214.73;;;46.03;;
84982;SDS011;75295;45.426;9.696;2024-01-30T01:34:22;124.45;;;38.35;;
84982;SDS011;75295;45.426;9.696;2024-01-30T01:36:50;211.55;;;46.38;;
84982;SDS011;75295;45.426;9.696;2024-01-30T01:39:17;179.85;;;42.95;;
84982;SDS011;75295;45.426;9.696;2024-01-30T01:41:44;212.88;;;42.47;;
84982;SDS011;75295;45.426;9.696;2024-01-30T01:44:10;175.45;;;45.13;;
84982;SDS011;75295;45.426;9.696;2024-01-30T01:46:38;130.88;;;37.97;;
84982;SDS011;75295;45.426;9.696;2024-01-30T01:49:05;184.77;;;48.95;;
84982;SDS011;75295;45.426;9.696;2024-01-30T01:51:34;228.18;;;55.97;;
84982;SDS011;75295;45.426;9.696;2024-01-30T01:54:03;217.73;;;50.33;;
84982;SDS011;75295;45.426;9.696;2024-01-30T01:56:34;264.55;;;55.92;;
84982;SDS011;75295;45.426;9.696;2024-01-30T01:59:05;168.68;;;51.80;;
84982;SDS011;75295;45.426;9.696;2024-01-30T02:01:35;178.90;;;52.33;;
84982;SDS011;75295;45.426;9.696;2024-01-30T02:04:03;211.05;;;51.78;;
84982;SDS011;75295;45.426;9.696;2024-01-30T02:06:31;278.98;;;58.85;;
84982;SDS011;75295;45.426;9.696;2024-01-30T02:09:00;273.25;;;61.15;;
84982;SDS011;75295;45.426;9.696;2024-01-30T02:11:27;247.23;;;64.32;;
84982;SDS011;75295;45.426;9.696;2024-01-30T02:13:54;224.05;;;55.03;;
84982;SDS011;75295;45.426;9.696;2024-01-30T02:16:22;371.60;;;69.95;;
84982;SDS011;75295;45.426;9.696;2024-01-30T02:18:49;234.07;;;61.25;;
84982;SDS011;75295;45.426;9.696;2024-01-30T02:21:18;200.90;;;58.50;;
84982;SDS011;75295;45.426;9.696;2024-01-30T02:23:49;318.92;;;65.82;;
84982;SDS011;75295;45.426;9.696;2024-01-30T02:26:17;263.13;;;59.00;;
84982;SDS011;75295;45.426;9.696;2024-01-30T02:28:43;210.23;;;49.47;;
84982;SDS011;75295;45.426;9.696;2024-01-30T02:31:10;195.15;;;53.50;;
84982;SDS011;75295;45.426;9.696;2024-01-30T02:33:37;235.35;;;55.63;;
84982;SDS011;75295;45.426;9.696;2024-01-30T02:36:04;213.10;;;54.35;;
84982;SDS011;75295;45.426;9.696;2024-01-30T02:38:32;241.45;;;50.80;;
84982;SDS011;75295;45.426;9.696;2024-01-30T02:40:59;204.98;;;45.70;;
84982;SDS011;75295;45.426;9.696;2024-01-30T02:43:26;247.07;;;52.33;;
84982;SDS011;75295;45.426;9.696;2024-01-30T02:45:53;244.48;;;54.78;;
84982;SDS011;75295;45.426;9.696;2024-01-30T02:48:20;185.45;;;47.83;;
84982;SDS011;75295;45.426;9.696;2024-01-30T02:50:47;146.23;;;37.85;;
84982;SDS011;75295;45.426;9.696;2024-01-30T02:53:14;295.83;;;55.55;;
84982;SDS011;75295;45.426;9.696;2024-01-30T02:55:41;244.43;;;49.67;;
84982;SDS011;75295;45.426;9.696;2024-01-30T02:58:08;256.20;;;50.58;;
84982;SDS011;75295;45.426;9.696;2024-01-30T03:00:35;207.20;;;46.42;;
84982;SDS011;75295;45.426;9.696;2024-01-30T03:03:03;156.27;;;45.30;;
84982;SDS011;75295;45.426;9.696;2024-01-30T03:05:31;193.27;;;44.15;;
84982;SDS011;75295;45.426;9.696;2024-01-30T03:07:58;304.98;;;50.85;;
84982;SDS011;75295;45.426;9.696;2024-01-30T03:10:25;223.98;;;46.78;;
84982;SDS011;75295;45.426;9.696;2024-01-30T03:12:52;244.43;;;54.28;;
84982;SDS011;75295;45.426;9.696;2024-01-30T03:15:19;206.27;;;53.38;;
84982;SDS011;75295;45.426;9.696;2024-01-30T03:17:46;216.30;;;49.72;;
84982;SDS011;75295;45.426;9.696;2024-01-30T03:20:13;226.40;;;53.17;;
84982;SDS011;75295;45.426;9.696;2024-01-30T03:22:40;205.30;;;52.97;;
84982;SDS011;75295;45.426;9.696;2024-01-30T03:25:06;220.70;;;51.80;;
84982;SDS011;75295;45.426;9.696;2024-01-30T03:27:33;152.32;;;48.70;;
84982;SDS011;75295;45.426;9.696;2024-01-30T03:30:00;154.60;;;50.35;;
84982;SDS011;75295;45.426;9.696;2024-01-30T03:32:28;213.15;;;48.17;;
84982;SDS011;75295;45.426;9.696;2024-01-30T03:34:55;253.15;;;54.47;;
84982;SDS011;75295;45.426;9.696;2024-01-30T03:37:22;178.18;;;51.78;;
84982;SDS011;75295;45.426;9.696;2024-01-30T03:39:50;177.75;;;47.47;;
84982;SDS011;75295;45.426;9.696;2024-01-30T03:42:16;152.65;;;48.25;;
84982;SDS011;75295;45.426;9.696;2024-01-30T03:44:43;218.38;;;53.25;;
84982;SDS011;75295;45.426;9.696;2024-01-30T03:47:10;317.90;;;58.13;;
84982;SDS011;75295;45.426;9.696;2024-01-30T03:49:37;221.93;;;55.25;;
84982;SDS011;75295;45.426;9.696;2024-01-30T03:52:03;238.38;;;54.17;;
84982;SDS011;75295;45.426;9.696;2024-01-30T03:54:30;159.95;;;51.60;;
84982;SDS011;75295;45.426;9.696;2024-01-30T03:56:58;197.85;;;53.38;;
84982;SDS011;75295;45.426;9.696;2024-01-30T03:59:25;150.80;;;54.25;;
84982;SDS011;75295;45.426;9.696;2024-01-30T04:01:52;245.48;;;56.38;;
84982;SDS011;75295;45.426;9.696;2024-01-30T04:04:19;304.80;;;57.03;;
84982;SDS011;75295;45.426;9.696;2024-01-30T04:06:46;306.08;;;58.55;;
84982;SDS011;75295;45.426;9.696;2024-01-30T04:09:14;211.45;;;58.00;;
84982;SDS011;75295;45.426;9.696;2024-01-30T04:11:41;394.17;;;59.60;;
84982;SDS011;75295;45.426;9.696;2024-01-30T04:14:08;229.40;;;63.70;;
84982;SDS011;75295;45.426;9.696;2024-01-30T04:16:36;177.93;;;55.58;;
84982;SDS011;75295;45.426;9.696;2024-01-30T04:19:03;300.75;;;57.35;;
84982;SDS011;75295;45.426;9.696;2024-01-30T04:21:30;220.52;;;54.55;;
84982;SDS011;75295;45.426;9.696;2024-01-30T04:23:57;188.13;;;53.78;;
84982;SDS011;75295;45.426;9.696;2024-01-30T04:26:24;183.73;;;50.67;;
84982;SDS011;75295;45.426;9.696;2024-01-30T04:28:51;214.90;;;56.13;;
84982;SDS011;75295;45.426;9.696;2024-01-30T04:31:18;271.70;;;60.35;;
84982;SDS011;75295;45.426;9.696;2024-01-30T04:33:45;168.05;;;54.53;;
84982;SDS011;75295;45.426;9.696;2024-01-30T04:36:12;260.98;;;58.72;;
84982;SDS011;75295;45.426;9.696;2024-01-30T04:38:40;201.90;;;57.10;;
84982;SDS011;75295;45.426;9.696;2024-01-30T04:41:07;190.68;;;48.40;;
84982;SDS011;75295;45.426;9.696;2024-01-30T04:43:36;215.93;;;57.72;;
84982;SDS011;75295;45.426;9.696;2024-01-30T04:46:08;212.45;;;57.55;;
84982;SDS011;75295;45.426;9.696;2024-01-30T04:48:38;286.58;;;61.67;;
84982;SDS011;75295;45.426;9.696;2024-01-30T04:51:04;318.80;;;64.55;;
84982;SDS011;75295;45.426;9.696;2024-01-30T04:53:31;328.70;;;75.20;;
84982;SDS011;75295;45.426;9.696;2024-01-30T04:56:00;307.13;;;72.25;;
84982;SDS011;75295;45.426;9.696;2024-01-30T04:58:27;255.23;;;70.50;;
84982;SDS011;75295;45.426;9.696;2024-01-30T05:00:59;268.17;;;67.28;;
84982;SDS011;75295;45.426;9.696;2024-01-30T05:03:39;221.48;;;68.43;;
84982;SDS011;75295;45.426;9.696;2024-01-30T05:06:05;307.50;;;66.28;;
84982;SDS011;75295;45.426;9.696;2024-01-30T05:08:34;334.05;;;60.03;;
84982;SDS011;75295;45.426;9.696;2024-01-30T05:11:06;297.40;;;68.55;;
84982;SDS011;75295;45.426;9.696;2024-01-30T05:13:35;250.15;;;63.58;;
84982;SDS011;75295;45.426;9.696;2024-01-30T05:16:02;161.65;;;53.45;;
84982;SDS011;75295;45.426;9.696;2024-01-30T05:18:30;222.50;;;57.10;;
84982;SDS011;75295;45.426;9.696;2024-01-30T05:20:57;277.65;;;66.45;;
84982;SDS011;75295;45.426;9.696;2024-01-30T05:26:10;179.98;;;58.88;;
84982;SDS011;75295;45.426;9.696;2024-01-30T05:28:44;239.25;;;60.63;;
84982;SDS011;75295;45.426;9.696;2024-01-30T05:31:16;246.55;;;54.58;;
84982;SDS011;75295;45.426;9.696;2024-01-30T05:33:58;264.02;;;54.47;;
84982;SDS011;75295;45.426;9.696;2024-01-30T05:36:40;335.23;;;73.60;;
84982;SDS011;75295;45.426;9.696;2024-01-30T05:39:15;297.02;;;65.40;;
84982;SDS011;75295;45.426;9.696;2024-01-30T05:42:06;311.17;;;63.83;;
84982;SDS011;75295;45.426;9.696;2024-01-30T05:44:38;227.55;;;51.80;;
84982;SDS011;75295;45.426;9.696;2024-01-30T05:47:05;265.92;;;62.70;;
84982;SDS011;75295;45.426;9.696;2024-01-30T05:49:32;287.63;;;59.65;;
84982;SDS011;75295;45.426;9.696;2024-01-30T05:52:13;293.55;;;59.15;;
84982;SDS011;75295;45.426;9.696;2024-01-30T05:55:07;306.67;;;61.53;;
84982;SDS011;75295;45.426;9.696;2024-01-30T05:58:15;266.67;;;58.38;;
84982;SDS011;75295;45.426;9.696;2024-01-30T06:01:26;293.80;;;57.10;;
84982;SDS011;75295;45.426;9.696;2024-01-30T06:04:37;350.00;;;69.47;;
84982;SDS011;75295;45.426;9.696;2024-01-30T06:07:44;292.20;;;65.45;;
84982;SDS011;75295;45.426;9.696;2024-01-30T06:10:14;317.60;;;63.97;;
84982;SDS011;75295;45.426;9.696;2024-01-30T06:12:51;286.67;;;62.72;;
84982;SDS011;75295;45.426;9.696;2024-01-30T06:15:50;361.70;;;71.30;;
84982;SDS011;75295;45.426;9.696;2024-01-30T06:18:18;269.23;;;61.03;;
84982;SDS011;75295;45.426;9.696;2024-01-30T06:21:00;256.27;;;59.42;;
84982;SDS011;75295;45.426;9.696;2024-01-30T06:23:30;341.08;;;65.75;;
84982;SDS011;75295;45.426;9.696;2024-01-30T06:26:10;247.32;;;66.10;;
84982;SDS011;75295;45.426;9.696;2024-01-30T06:28:37;241.05;;;57.92;;
84982;SDS011;75295;45.426;9.696;2024-01-30T06:31:06;276.20;;;67.80;;
84982;SDS011;75295;45.426;9.696;2024-01-30T06:33:33;196.07;;;57.72;;
84982;SDS011;75295;45.426;9.696;2024-01-30T06:35:59;282.15;;;61.70;;
84982;SDS011;75295;45.426;9.696;2024-01-30T06:38:44;265.60;;;66.88;;
84982;SDS011;75295;45.426;9.696;2024-01-30T06:41:38;215.95;;;61.40;;
84982;SDS011;75295;45.426;9.696;2024-01-30T06:44:04;371.25;;;65.22;;
84982;SDS011;75295;45.426;9.696;2024-01-30T06:46:35;215.57;;;60.97;;
84982;SDS011;75295;45.426;9.696;2024-01-30T06:49:06;262.88;;;56.92;;
84982;SDS011;75295;45.426;9.696;2024-01-30T06:51:38;230.32;;;55.25;;
84982;SDS011;75295;45.426;9.696;2024-01-30T06:54:43;234.75;;;59.13;;
84982;SDS011;75295;45.426;9.696;2024-01-30T06:57:35;364.88;;;77.57;;
84982;SDS011;75295;45.426;9.696;2024-01-30T07:00:32;265.05;;;64.15;;
84982;SDS011;75295;45.426;9.696;2024-01-30T07:03:23;293.63;;;61.63;;
84982;SDS011;75295;45.426;9.696;2024-01-30T07:05:50;273.10;;;57.78;;
84982;SDS011;75295;45.426;9.696;2024-01-30T07:08:42;162.90;;;51.33;;
84982;SDS011;75295;45.426;9.696;2024-01-30T07:14:51;264.63;;;52.42;;
84982;SDS011;75295;45.426;9.696;2024-01-30T07:17:59;291.23;;;58.45;;
84982;SDS011;75295;45.426;9.696;2024-01-30T07:21:11;364.23;;;64.78;;
84982;SDS011;75295;45.426;9.696;2024-01-30T07:24:22;340.45;;;64.70;;
84982;SDS011;75295;45.426;9.696;2024-01-30T07:27:05;253.82;;;65.47;;
84982;SDS011;75295;45.426;9.696;2024-01-30T07:29:37;330.38;;;69.43;;
84982;SDS011;75295;45.426;9.696;2024-01-30T07:32:19;286.05;;;57.35;;
84982;SDS011;75295;45.426;9.696;2024-01-30T07:35:06;216.63;;;58.10;;
84982;SDS011;75295;45.426;9.696;2024-01-30T07:37:47;281.38;;;60.15;;
84982;SDS011;75295;45.426;9.696;2024-01-30T07:40:27;344.35;;;66.97;;
84982;SDS011;75295;45.426;9.696;2024-01-30T07:43:31;363.85;;;70.93;;
84982;SDS011;75295;45.426;9.696;2024-01-30T07:46:31;381.90;;;70.85;;
84982;SDS011;75295;45.426;9.696;2024-01-30T07:49:35;198.20;;;57.00;;
84982;SDS011;75295;45.426;9.696;2024-01-30T07:52:46;234.38;;;53.60;;
84982;SDS011;75295;45.426;9.696;2024-01-30T07:55:55;266.83;;;60.67;;
84982;SDS011;75295;45.426;9.696;2024-01-30T07:59:09;264.15;;;58.53;;
84982;SDS011;75295;45.426;9.696;2024-01-30T08:02:02;224.50;;;59.07;;
84982;SDS011;75295;45.426;9.696;2024-01-30T08:04:59;305.60;;;56.97;;
84982;SDS011;75295;45.426;9.696;2024-01-30T08:07:27;339.23;;;68.05;;
84982;SDS011;75295;45.426;9.696;2024-01-30T08:09:57;212.25;;;55.78;;
84982;SDS011;75295;45.426;9.696;2024-01-30T08:12:24;249.32;;;61.83;;
84982;SDS011;75295;45.426;9.696;2024-01-30T08:14:51;220.63;;;48.85;;
84982;SDS011;75295;45.426;9.696;2024-01-30T08:17:59;235.60;;;54.58;;
84982;SDS011;75295;45.426;9.696;2024-01-30T08:21:15;175.95;;;52.97;;
84982;SDS011;75295;45.426;9.696;2024-01-30T08:24:19;235.02;;;56.22;;
84982;SDS011;75295;45.426;9.696;2024-01-30T08:27:28;245.98;;;55.08;;
84982;SDS011;75295;45.426;9.696;2024-01-30T08:30:28;186.38;;;54.75;;
84982;SDS011;75295;45.426;9.696;2024-01-30T08:33:41;235.45;;;54.00;;
84982;SDS011;75295;45.426;9.696;2024-01-30T08:36:41;276.98;;;62.15;;
84982;SDS011;75295;45.426;9.696;2024-01-30T08:39:51;222.82;;;61.90;;
84982;SDS011;75295;45.426;9.696;2024-01-30T08:43:07;165.93;;;50.22;;
84982;SDS011;75295;45.426;9.696;2024-01-30T08:46:06;155.68;;;49.63;;
84982;SDS011;75295;45.426;9.696;2024-01-30T08:49:06;172.27;;;47.90;;
84982;SDS011;75295;45.426;9.696;2024-01-30T08:52:24;248.43;;;58.40;;
84982;SDS011;75295;45.426;9.696;2024-01-30T08:55:37;213.60;;;48.70;;
84982;SDS011;75295;45.426;9.696;2024-01-30T08:58:08;206.32;;;46.67;;
84982;SDS011;75295;45.426;9.696;2024-01-30T09:01:05;215.52;;;48.53;;
84982;SDS011;75295;45.426;9.696;2024-01-30T09:03:32;233.88;;;53.08;;
84982;SDS011;75295;45.426;9.696;2024-01-30T09:06:32;173.15;;;54.00;;
84982;SDS011;75295;45.426;9.696;2024-01-30T09:09:47;210.77;;;50.92;;
84982;SDS011;75295;45.426;9.696;2024-01-30T09:12:48;150.27;;;50.50;;
84982;SDS011;75295;45.426;9.696;2024-01-30T09:15:50;163.88;;;50.05;;
84982;SDS011;75295;45.426;9.696;2024-01-30T09:18:58;219.18;;;53.70;;
84982;SDS011;75295;45.426;9.696;2024-01-30T09:21:56;203.63;;;52.65;;
84982;SDS011;75295;45.426;9.696;2024-01-30T09:24:34;156.02;;;47.05;;
84982;SDS011;75295;45.426;9.696;2024-01-30T09:27:02;117.70;;;47.80;;
84982;SDS011;75295;45.426;9.696;2024-01-30T09:29:29;184.55;;;51.63;;
84982;SDS011;75295;45.426;9.696;2024-01-30T09:31:56;139.25;;;51.92;;
84982;SDS011;75295;45.426;9.696;2024-01-30T09:34:23;131.60;;;50.85;;
84982;SDS011;75295;45.426;9.696;2024-01-30T09:36:59;104.60;;;43.60;;
84982;SDS011;75295;45.426;9.696;2024-01-30T09:39:41;132.48;;;50.55;;
84982;SDS011;75295;45.426;9.696;2024-01-30T09:42:17;149.88;;;49.22;;
84982;SDS011;75295;45.426;9.696;2024-01-30T09:44:57;173.60;;;47.65;;
84982;SDS011;75295;45.426;9.696;2024-01-30T09:47:26;107.97;;;49.13;;
84982;SDS011;75295;45.426;9.696;2024-01-30T09:50:02;105.32;;;48.35;;
84982;SDS011;75295;45.426;9.696;2024-01-30T09:52:33;136.43;;;47.28;;
84982;SDS011;75295;45.426;9.696;2024-01-30T09:55:01;124.78;;;46.90;;
84982;SDS011;75295;45.426;9.696;2024-01-30T09:57:30;108.70;;;47.08;;
84982;SDS011;75295;45.426;9.696;2024-01-30T10:00:00;127.40;;;49.13;;
84982;SDS011;75295;45.426;9.696;2024-01-30T10:03:03;130.73;;;47.50;;
84982;SDS011;75295;45.426;9.696;2024-01-30T10:06:15;176.93;;;53.65;;
84982;SDS011;75295;45.426;9.696;2024-01-30T10:08:46;155.25;;;48.05;;
84982;SDS011;75295;45.426;9.696;2024-01-30T10:11:41;123.40;;;47.67;;
84982;SDS011;75295;45.426;9.696;2024-01-30T10:14:59;198.43;;;53.92;;
84982;SDS011;75295;45.426;9.696;2024-01-30T10:17:37;168.05;;;53.63;;
84982;SDS011;75295;45.426;9.696;2024-01-30T10:20:26;110.90;;;48.45;;
84982;SDS011;75295;45.426;9.696;2024-01-30T10:25:58;101.65;;;49.65;;
84982;SDS011;75295;45.426;9.696;2024-01-30T10:28:32;100.43;;;49.08;;
84982;SDS011;75295;45.426;9.696;2024-01-30T10:31:02;118.18;;;53.30;;
84982;SDS011;75295;45.426;9.696;2024-01-30T10:33:44;115.00;;;47.38;;
84982;SDS011;75295;45.426;9.696;2024-01-30T10:36:13;114.90;;;55.53;;
84982;SDS011;75295;45.426;9.696;2024-01-30T10:38:43;97.70;;;49.65;;
84982;SDS011;75295;45.426;9.696;2024-01-30T10:41:12;87.47;;;47.15;;
84982;SDS011;75295;45.426;9.696;2024-01-30T10:46:25;85.82;;;46.90;;
84982;SDS011;75295;45.426;9.696;2024-01-30T10:49:00;90.13;;;47.45;;
84982;SDS011;75295;45.426;9.696;2024-01-30T10:51:28;81.53;;;48.13;;
84982;SDS011;75295;45.426;9.696;2024-01-30T10:54:03;79.20;;;45.70;;
84982;SDS011;75295;45.426;9.696;2024-01-30T10:56:32;83.43;;;49.00;;
84982;SDS011;75295;45.426;9.696;2024-01-30T10:59:01;94.47;;;45.85;;
84982;SDS011;75295;45.426;9.696;2024-01-30T11:01:29;89.32;;;48.38;;
84982;SDS011;75295;45.426;9.696;2024-01-30T11:03:57;98.35;;;51.25;;
84982;SDS011;75295;45.426;9.696;2024-01-30T11:06:24;90.53;;;53.15;;
84982;SDS011;75295;45.426;9.696;2024-01-30T11:09:02;86.50;;;50.00;;
84982;SDS011;75295;45.426;9.696;2024-01-30T11:11:51;90.20;;;52.05;;
84982;SDS011;75295;45.426;9.696;2024-01-30T11:14:31;90.95;;;50.92;;
84982;SDS011;75295;45.426;9.696;2024-01-30T11:16:58;84.35;;;47.65;;
84982;SDS011;75295;45.426;9.696;2024-01-30T11:19:26;82.55;;;50.22;;
84982;SDS011;75295;45.426;9.696;2024-01-30T11:21:53;81.78;;;51.20;;
84982;SDS011;75295;45.426;9.696;2024-01-30T11:24:23;89.47;;;52.25;;
84982;SDS011;75295;45.426;9.696;2024-01-30T11:26:59;81.68;;;51.85;;
84982;SDS011;75295;45.426;9.696;2024-01-30T11:29:28;86.85;;;52.55;;
84982;SDS011;75295;45.426;9.696;2024-01-30T11:31:55;90.93;;;55.63;;
84982;SDS011;75295;45.426;9.696;2024-01-30T11:34:23;90.70;;;53.13;;
84982;SDS011;75295;45.426;9.696;2024-01-30T11:37:01;89.32;;;52.63;;
84982;SDS011;75295;45.426;9.696;2024-01-30T11:39:35;90.07;;;52.13;;
84982;SDS011;75295;45.426;9.696;2024-01-30T11:42:02;90.78;;;53.67;;
84982;SDS011;75295;45.426;9.696;2024-01-30T11:44:32;87.55;;;53.55;;
84982;SDS011;75295;45.426;9.696;2024-01-30T11:46:58;88.22;;;54.13;;
84982;SDS011;75295;45.426;9.696;2024-01-30T11:49:25;90.30;;;54.55;;
84982;SDS011;75295;45.426;9.696;2024-01-30T11:51:52;84.55;;;51.38;;
84982;SDS011;75295;45.426;9.696;2024-01-30T11:54:21;94.47;;;54.45;;
84982;SDS011;75295;45.426;9.696;2024-01-30T11:56:48;87.70;;;51.33;;
84982;SDS011;75295;45.426;9.696;2024-01-30T11:59:15;87.15;;;51.92;;
84982;SDS011;75295;45.426;9.696;2024-01-30T12:01:42;88.30;;;53.38;;
84982;SDS011;75295;45.426;9.696;2024-01-30T12:04:10;89.72;;;53.85;;
84982;SDS011;75295;45.426;9.696;2024-01-30T12:06:36;87.85;;;52.75;;
84982;SDS011;75295;45.426;9.696;2024-01-30T12:09:04;91.68;;;56.22;;
84982;SDS011;75295;45.426;9.696;2024-01-30T12:11:43;93.85;;;58.58;;
84982;SDS011;75295;45.426;9.696;2024-01-30T12:14:12;90.90;;;55.45;;
84982;SDS011;75295;45.426;9.696;2024-01-30T12:16:41;94.90;;;56.03;;
84982;SDS011;75295;45.426;9.696;2024-01-30T12:19:08;100.38;;;58.22;;
84982;SDS011;75295;45.426;9.696;2024-01-30T12:21:34;94.70;;;57.97;;
84982;SDS011;75295;45.426;9.696;2024-01-30T12:24:02;102.32;;;57.92;;
84982;SDS011;75295;45.426;9.696;2024-01-30T12:26:30;105.68;;;60.05;;
84982;SDS011;75295;45.426;9.696;2024-01-30T12:28:58;97.75;;;58.38;;
84982;SDS011;75295;45.426;9.696;2024-01-30T12:31:25;98.50;;;59.72;;
84982;SDS011;75295;45.426;9.696;2024-01-30T12:33:53;97.05;;;58.20;;
84982;SDS011;75295;45.426;9.696;2024-01-30T12:36:21;92.55;;;53.85;;
84982;SDS011;75295;45.426;9.696;2024-01-30T12:38:50;99.38;;;57.47;;
84982;SDS011;75295;45.426;9.696;2024-01-30T12:41:17;103.47;;;60.60;;
84982;SDS011;75295;45.426;9.696;2024-01-30T12:43:46;103.93;;;57.00;;
84982;SDS011;75295;45.426;9.696;2024-01-30T12:46:16;102.05;;;60.40;;
84982;SDS011;75295;45.426;9.696;2024-01-30T12:48:43;96.80;;;54.78;;
84982;SDS011;75295;45.426;9.696;2024-01-30T12:51:10;96.68;;;55.75;;
84982;SDS011;75295;45.426;9.696;2024-01-30T12:53:37;92.07;;;57.28;;
84982;SDS011;75295;45.426;9.696;2024-01-30T12:56:05;84.47;;;53.13;;
84982;SDS011;75295;45.426;9.696;2024-01-30T12:58:32;97.72;;;55.33;;
84982;SDS011;75295;45.426;9.696;2024-01-30T13:00:58;95.70;;;56.83;;
84982;SDS011;75295;45.426;9.696;2024-01-30T13:03:27;104.30;;;59.50;;
84982;SDS011;75295;45.426;9.696;2024-01-30T13:05:53;88.45;;;52.28;;
84982;SDS011;75295;45.426;9.696;2024-01-30T13:08:25;92.18;;;53.67;;
84982;SDS011;75295;45.426;9.696;2024-01-30T13:10:52;96.63;;;58.38;;
84982;SDS011;75295;45.426;9.696;2024-01-30T13:13:18;96.30;;;54.55;;
84982;SDS011;75295;45.426;9.696;2024-01-30T13:15:45;94.97;;;60.28;;
84982;SDS011;75295;45.426;9.696;2024-01-30T13:18:13;97.43;;;56.35;;
84982;SDS011;75295;45.426;9.696;2024-01-30T13:20:40;99.53;;;60.58;;
84982;SDS011;75295;45.426;9.696;2024-01-30T13:23:06;93.00;;;55.55;;
84982;SDS011;75295;45.426;9.696;2024-01-30T13:25:33;98.85;;;61.00;;
84982;SDS011;75295;45.426;9.696;2024-01-30T13:28:00;92.70;;;56.65;;
84982;SDS011;75295;45.426;9.696;2024-01-30T13:30:28;100.18;;;58.28;;
84982;SDS011;75295;45.426;9.696;2024-01-30T13:32:55;105.78;;;61.03;;
84982;SDS011;75295;45.426;9.696;2024-01-30T13:35:22;93.45;;;57.53;;
84982;SDS011;75295;45.426;9.696;2024-01-30T13:37:49;103.45;;;62.67;;
84982;SDS011;75295;45.426;9.696;2024-01-30T13:40:21;95.03;;;56.60;;
84982;SDS011;75295;45.426;9.696;2024-01-30T13:42:48;91.25;;;55.80;;
84982;SDS011;75295;45.426;9.696;2024-01-30T13:45:15;89.78;;;57.97;;
84982;SDS011;75295;45.426;9.696;2024-01-30T13:47:42;92.78;;;58.30;;
84982;SDS011;75295;45.426;9.696;2024-01-30T13:50:13;92.90;;;59.33;;
84982;SDS011;75295;45.426;9.696;2024-01-30T13:52:45;89.78;;;53.83;;
84982;SDS011;75295;45.426;9.696;2024-01-30T13:55:12;97.85;;;58.35;;
84982;SDS011;75295;45.426;9.696;2024-01-30T13:57:39;92.22;;;57.35;;
84982;SDS011;75295;45.426;9.696;2024-01-30T14:00:07;95.95;;;60.78;;
84982;SDS011;75295;45.426;9.696;2024-01-30T14:02:43;102.50;;;63.42;;
84982;SDS011;75295;45.426;9.696;2024-01-30T14:05:18;93.72;;;58.70;;
84982;SDS011;75295;45.426;9.696;2024-01-30T14:07:51;103.00;;;60.80;;
84982;SDS011;75295;45.426;9.696;2024-01-30T14:10:19;98.85;;;61.40;;
84982;SDS011;75295;45.426;9.696;2024-01-30T14:12:46;94.05;;;58.30;;
84982;SDS011;75295;45.426;9.696;2024-01-30T14:15:17;100.20;;;60.45;;
84982;SDS011;75295;45.426;9.696;2024-01-30T14:17:48;90.25;;;55.75;;
84982;SDS011;75295;45.426;9.696;2024-01-30T14:20:16;95.60;;;58.90;;
84982;SDS011;75295;45.426;9.696;2024-01-30T14:22:45;90.60;;;58.35;;
84982;SDS011;75295;45.426;9.696;2024-01-30T14:25:13;87.35;;;54.28;;
84982;SDS011;75295;45.426;9.696;2024-01-30T14:27:43;87.25;;;57.20;;
84982;SDS011;75295;45.426;9.696;2024-01-30T14:30:10;92.60;;;57.97;;
84982;SDS011;75295;45.426;9.696;2024-01-30T14:32:41;84.32;;;56.33;;
84982;SDS011;75295;45.426;9.696;2024-01-30T14:35:20;90.50;;;55.97;;
84982;SDS011;75295;45.426;9.696;2024-01-30T14:37:57;96.07;;;59.80;;
84982;SDS011;75295;45.426;9.696;2024-01-30T14:40:34;95.40;;;57.92;;
84982;SDS011;75295;45.426;9.696;2024-01-30T14:43:08;94.70;;;61.80;;
84982;SDS011;75295;45.426;9.696;2024-01-30T14:45:39;96.50;;;58.47;;
84982;SDS011;75295;45.426;9.696;2024-01-30T14:48:09;97.18;;;60.72;;
84982;SDS011;75295;45.426;9.696;2024-01-30T14:50:39;94.93;;;59.17;;
84982;SDS011;75295;45.426;9.696;2024-01-30T14:53:05;87.35;;;54.80;;
84982;SDS011;75295;45.426;9.696;2024-01-30T14:55:44;95.18;;;57.95;;
84982;SDS011;75295;45.426;9.696;2024-01-30T14:58:15;100.10;;;59.65;;
84982;SDS011;75295;45.426;9.696;2024-01-30T15:00:41;87.65;;;56.60;;
84982;SDS011;75295;45.426;9.696;2024-01-30T15:03:11;91.60;;;56.47;;